Time;durP1;ratioP1;P1;durP2;ratioP2;P2;SDS_P1;SDS_P2;PMS_P1;PMS_P2;Temp;Humidity;BMP_temperature;BMP_pressure;BME280_temperature;BME280_humidity;BME280_pressure;Samples;Min_cycle;Max_cycle;Signal;HPM_P1;HPM_P2
2023/09/13 00:02:03;;;;;;;57.63;33.38;;;;;;;17.28;100.00;101263.97;5068595;28;20107;-76
2023/09/13 00:04:28;;;;;;;56.63;33.20;;;;;;;17.30;100.00;101262.13;5060356;28;20029;-76
2023/09/13 00:06:54;;;;;;;55.80;33.47;;;;;;;17.35;100.00;101269.81;5061785;28;20519;-76
2023/09/13 00:09:19;;;;;;;57.80;32.55;;;;;;;17.36;100.00;101261.84;5066342;28;20349;-76
2023/09/13 00:11:45;;;;;;;54.97;33.55;;;;;;;17.39;100.00;101260.84;5060364;28;20112;-76
2023/09/13 00:14:10;;;;;;;51.83;31.80;;;;;;;17.39;100.00;101260.84;5062455;28;20025;-76
2023/09/13 00:16:35;;;;;;;55.88;31.55;;;;;;;17.41;100.00;101259.88;5066329;28;20040;-76
2023/09/13 00:19:03;;;;;;;56.20;32.72;;;;;;;17.36;100.00;101253.09;5060739;28;20021;-76
2023/09/13 00:21:29;;;;;;;48.25;31.10;;;;;;;17.36;100.00;101267.09;5054434;28;20078;-76
2023/09/13 00:23:54;;;;;;;49.47;29.65;;;;;;;17.36;100.00;101267.09;5061210;28;20029;-76
2023/09/13 00:26:20;;;;;;;48.20;31.90;;;;;;;17.36;100.00;101271.53;5067876;28;20024;-76
2023/09/13 00:28:46;;;;;;;48.92;31.42;;;;;;;17.30;100.00;101254.22;5060766;28;20460;-76
2023/09/13 00:31:11;;;;;;;48.80;31.17;;;;;;;17.34;100.00;101261.06;5068411;28;20029;-76
2023/09/13 00:33:36;;;;;;;49.72;31.00;;;;;;;17.27;100.00;101263.13;5059839;28;20036;-76
2023/09/13 00:36:02;;;;;;;50.22;30.65;;;;;;;17.25;100.00;101266.75;5066538;28;20032;-76
2023/09/13 00:38:28;;;;;;;50.40;32.38;;;;;;;17.23;100.00;101271.22;5062808;28;20103;-76
2023/09/13 00:40:53;;;;;;;52.35;32.15;;;;;;;17.18;100.00;101263.53;5063943;28;20348;-76
2023/09/13 00:43:18;;;;;;;53.78;33.78;;;;;;;17.17;100.00;101266.25;5064190;28;20111;-76
2023/09/13 00:45:47;;;;;;;51.22;32.75;;;;;;;17.24;100.00;101267.69;5063026;28;20108;-76
2023/09/13 00:48:13;;;;;;;58.17;34.90;;;;;;;17.27;100.00;101265.75;5063240;28;20478;-76
2023/09/13 00:50:38;;;;;;;62.63;36.33;;;;;;;17.29;100.00;101265.69;5063234;28;20029;-76
2023/09/13 00:53:06;;;;;;;60.33;35.90;;;;;;;17.28;100.00;101264.81;5064051;28;20024;-76
2023/09/13 00:55:31;;;;;;;68.03;39.15;;;;;;;17.34;100.00;101273.41;5062816;28;20508;-76
2023/09/13 00:57:57;;;;;;;71.05;38.83;;;;;;;17.39;100.00;101268.75;5063494;28;20017;-76
2023/09/13 01:00:24;;;;;;;64.15;38.85;;;;;;;17.43;100.00;101262.41;5062864;28;20032;-76
2023/09/13 01:02:50;;;;;;;70.40;39.17;;;;;;;17.39;100.00;101264.34;5059864;28;20031;-76
2023/09/13 01:05:16;;;;;;;73.30;40.85;;;;;;;17.37;100.00;101263.56;5063622;28;20032;-76
2023/09/13 01:07:44;;;;;;;72.93;41.05;;;;;;;17.42;100.00;101260.72;5061096;28;20028;-75
2023/09/13 01:10:10;;;;;;;73.15;41.20;;;;;;;17.36;100.00;101259.19;5063205;28;20075;-76
2023/09/13 01:12:36;;;;;;;78.40;42.25;;;;;;;17.39;100.00;101269.59;5063431;28;20020;-76
2023/09/13 01:15:06;;;;;;;75.85;42.08;;;;;;;17.39;100.00;101271.38;5061339;28;20482;-76
2023/09/13 01:17:59;;;;;;;74.28;40.95;;;;;;;17.39;100.00;101268.75;5063675;28;20028;-76
2023/09/13 01:20:54;;;;;;;83.07;43.33;;;;;;;17.33;100.00;101267.28;5060824;28;20032;-76
2023/09/13 01:23:27;;;;;;;67.53;39.50;;;;;;;17.28;100.00;101258.69;5060060;28;20033;-76
2023/09/13 01:26:25;;;;;;;78.90;42.25;;;;;;;17.28;100.00;101259.56;5065532;28;20518;-76
2023/09/13 01:28:54;;;;;;;80.13;42.47;;;;;;;17.34;100.00;101263.69;5056771;28;20466;-76
2023/09/13 01:31:21;;;;;;;82.60;43.67;;;;;;;17.34;100.00;101262.84;5067833;28;20120;-76
2023/09/13 01:33:47;;;;;;;83.07;45.42;;;;;;;17.36;100.00;101272.38;5059984;28;20060;-76
2023/09/13 01:36:12;;;;;;;89.85;45.53;;;;;;;17.33;100.00;101272.53;5066724;28;20029;-76
2023/09/13 01:38:38;;;;;;;88.00;46.75;;;;;;;17.35;100.00;101275.94;5060350;28;20031;-76
2023/09/13 01:41:15;;;;;;;90.63;44.30;;;;;;;17.38;100.00;101275.81;5066148;28;20448;-76
2023/09/13 01:43:41;;;;;;;94.22;46.58;;;;;;;17.38;100.00;101275.81;5059946;28;20468;-76
2023/09/13 01:46:08;;;;;;;91.32;46.25;;;;;;;17.34;100.00;101268.97;5059775;28;20074;-75
2023/09/13 01:48:35;;;;;;;92.20;46.80;;;;;;;17.39;100.00;101277.50;5062285;28;20103;-76
2023/09/13 01:51:02;;;;;;;90.32;47.83;;;;;;;17.32;100.00;101276.94;5063282;28;20104;-76
2023/09/13 01:53:28;;;;;;;104.30;50.97;;;;;;;17.28;100.00;101280.63;5063548;28;20036;-76
2023/09/13 01:55:53;;;;;;;100.95;50.03;;;;;;;17.26;100.00;101287.75;5063060;28;20479;-76
2023/09/13 01:58:18;;;;;;;98.60;50.38;;;;;;;17.17;100.00;101280.28;5062814;28;20036;-76
2023/09/13 02:00:44;;;;;;;102.65;51.00;;;;;;;17.20;100.00;101285.41;5062315;28;20029;-76
2023/09/13 02:03:09;;;;;;;98.55;50.85;;;;;;;17.13;100.00;101277.81;5061152;28;20024;-76
2023/09/13 02:05:34;;;;;;;103.25;50.95;;;;;;;17.18;100.00;101289.03;5062260;28;20484;-76
2023/09/13 02:08:00;;;;;;;109.13;53.03;;;;;;;17.13;100.00;101281.31;5060850;28;20029;-76
2023/09/13 02:10:25;;;;;;;97.60;49.40;;;;;;;17.06;100.00;101285.97;5063471;28;20036;-76
2023/09/13 02:12:50;;;;;;;99.35;50.70;;;;;;;17.04;100.00;101287.00;5062172;28;20159;-76
2023/09/13 02:15:15;;;;;;;113.32;54.08;;;;;;;17.04;100.00;101282.56;5062144;28;20025;-76
2023/09/13 02:17:41;;;;;;;120.13;56.55;;;;;;;17.12;100.00;101300.69;5062290;28;20016;-76
2023/09/13 02:20:07;;;;;;;127.75;57.22;;;;;;;17.15;100.00;101297.06;5062062;28;20031;-76
2023/09/13 02:22:33;;;;;;;126.43;57.13;;;;;;;17.16;100.00;101301.41;5062817;28;20050;-76
2023/09/13 02:24:58;;;;;;;141.27;60.17;;;;;;;17.16;100.00;101302.25;5062828;28;20149;-76
2023/09/13 02:27:24;;;;;;;161.82;65.93;;;;;;;17.16;100.00;101304.88;5062307;28;20448;-76
2023/09/13 02:29:49;;;;;;;161.27;65.22;;;;;;;17.19;100.00;101306.53;5062881;28;20104;-76
2023/09/13 02:32:14;;;;;;;159.95;66.38;;;;;;;17.23;100.00;101306.34;5061724;28;20060;-76
2023/09/13 02:34:43;;;;;;;149.90;65.07;;;;;;;17.25;100.00;101301.00;5062856;28;20031;-76
2023/09/13 02:37:09;;;;;;;170.32;68.22;;;;;;;17.26;100.00;101307.97;5065824;28;20017;-76
2023/09/13 02:39:39;;;;;;;153.90;62.55;;;;;;;17.26;100.00;101310.59;5064779;28;20112;-76
2023/09/13 02:42:06;;;;;;;148.00;64.05;;;;;;;17.26;100.00;101308.81;5068726;28;20035;-76
2023/09/13 02:44:32;;;;;;;152.00;63.00;;;;;;;17.25;100.00;101307.13;5064205;28;20064;-76
2023/09/13 02:46:58;;;;;;;146.27;62.80;;;;;;;17.24;100.00;101299.28;5069853;28;20029;-76
2023/09/13 02:49:24;;;;;;;248.30;63.22;;;;;;;17.15;100.00;101299.69;5059368;28;20037;-76
2023/09/13 02:51:51;;;;;;;142.05;63.13;;;;;;;17.07;100.00;101300.88;5060874;28;20096;-76
2023/09/13 02:54:17;;;;;;;130.57;59.40;;;;;;;17.07;100.00;101311.44;5067581;28;20135;-76
2023/09/13 02:56:44;;;;;;;129.30;59.40;;;;;;;17.04;100.00;101314.19;5063538;28;20112;-76
2023/09/13 02:59:09;;;;;;;127.30;56.50;;;;;;;17.00;100.00;101307.34;5066516;28;20033;-76
2023/09/13 03:01:35;;;;;;;139.23;55.83;;;;;;;16.98;100.00;101308.31;5061936;28;20040;-76
2023/09/13 03:04:00;;;;;;;139.95;58.78;;;;;;;16.96;100.00;101318.91;5067769;28;20446;-76
2023/09/13 03:06:25;;;;;;;127.10;57.10;;;;;;;16.95;100.00;101321.63;5068046;28;20071;-76
2023/09/13 03:08:51;;;;;;;149.48;58.70;;;;;;;16.94;100.00;101315.50;5064405;28;20101;-76
2023/09/13 03:11:21;;;;;;;131.32;57.20;;;;;;;16.97;100.00;101318.00;5065908;28;20112;-76
2023/09/13 03:13:46;;;;;;;130.57;56.13;;;;;;;17.02;100.00;101318.66;5065635;28;20119;-76
2023/09/13 03:16:21;;;;;;;140.25;57.35;;;;;;;17.03;100.00;101315.09;5064842;28;20108;-76
2023/09/13 03:18:48;;;;;;;138.55;57.65;;;;;;;16.99;100.00;101310.03;5066029;28;20601;-76
2023/09/13 03:21:17;;;;;;;132.98;57.03;;;;;;;16.95;100.00;101319.84;5064813;28;20468;-76
2023/09/13 03:23:50;;;;;;;130.90;56.25;;;;;;;16.93;100.00;101320.81;5065428;28;20031;-76
2023/09/13 03:26:18;;;;;;;128.55;54.63;;;;;;;16.93;100.00;101321.66;5064558;28;20039;-76
2023/09/13 03:28:46;;;;;;;124.70;52.67;;;;;;;16.92;100.00;101317.34;5064034;28;20024;-76
2023/09/13 03:31:12;;;;;;;131.10;54.92;;;;;;;16.92;100.00;101324.38;5065572;28;20082;-76
2023/09/13 03:33:39;;;;;;;133.02;55.30;;;;;;;16.82;100.00;101327.41;5063523;28;20024;-77
2023/09/13 03:36:07;;;;;;;133.13;56.35;;;;;;;16.84;100.00;101322.94;5064996;28;20050;-76
2023/09/13 03:38:32;;;;;;;143.63;56.97;;;;;;;16.82;100.00;101339.72;5063187;28;20025;-76
2023/09/13 03:40:57;;;;;;;132.75;55.55;;;;;;;16.89;100.00;101342.94;5065957;28;20028;-76
2023/09/13 03:43:23;;;;;;;142.55;59.67;;;;;;;16.92;100.00;101330.50;5062832;28;20028;-76
2023/09/13 03:45:48;;;;;;;153.88;59.60;;;;;;;16.99;100.00;101334.59;5065159;28;20067;-76
2023/09/13 03:48:13;;;;;;;159.55;61.03;;;;;;;17.02;100.00;101334.47;5064473;28;20052;-76
2023/09/13 03:50:39;;;;;;;154.68;60.22;;;;;;;17.07;100.00;101331.66;5062701;28;20490;-76
2023/09/13 03:53:04;;;;;;;158.50;59.20;;;;;;;17.08;100.00;101326.28;5066909;28;20021;-76
2023/09/13 03:55:29;;;;;;;146.75;57.00;;;;;;;17.11;100.00;101337.63;5064058;28;20032;-76
2023/09/13 03:57:54;;;;;;;148.18;59.40;;;;;;;17.15;100.00;101339.22;5063543;28;20025;-76
2023/09/13 04:00:20;;;;;;;160.60;61.42;;;;;;;17.13;100.00;101344.53;5067522;28;20029;-76
2023/09/13 04:02:45;;;;;;;153.23;57.10;;;;;;;17.19;100.00;101333.72;5057419;28;20037;-76
2023/09/13 04:05:11;;;;;;;140.75;57.55;;;;;;;17.17;100.00;101337.38;5068942;28;20024;-76
2023/09/13 04:07:36;;;;;;;142.13;58.67;;;;;;;17.17;100.00;101330.31;5061389;28;20033;-76
2023/09/13 04:10:01;;;;;;;141.32;58.83;;;;;;;17.17;100.00;101329.47;5070014;28;20032;-76
2023/09/13 04:12:27;;;;;;;138.38;54.90;;;;;;;17.18;100.00;101331.19;5060830;28;20040;-76
2023/09/13 04:14:52;;;;;;;131.00;56.55;;;;;;;17.16;100.00;101333.00;5061841;28;20036;-76
2023/09/13 04:17:18;;;;;;;126.43;53.97;;;;;;;17.18;100.00;101333.81;5066754;28;20388;-76
2023/09/13 04:19:43;;;;;;;133.15;56.67;;;;;;;17.17;100.00;101340.00;5056129;28;20029;-76
2023/09/13 04:22:10;;;;;;;132.70;53.22;;;;;;;17.16;100.00;101333.84;5067674;28;20028;-76
2023/09/13 04:24:36;;;;;;;121.18;53.22;;;;;;;17.13;100.00;101328.72;5060417;28;20036;-76
2023/09/13 04:27:01;;;;;;;130.65;53.75;;;;;;;17.08;100.00;101336.84;5066565;28;20032;-76
2023/09/13 04:29:27;;;;;;;123.88;51.45;;;;;;;17.04;100.00;101332.63;5061692;28;20031;-76
2023/09/13 04:31:52;;;;;;;124.90;54.20;;;;;;;17.08;100.00;101341.25;5064130;28;20035;-76
2023/09/13 04:34:17;;;;;;;122.07;51.05;;;;;;;17.09;100.00;101349.06;5064139;28;20456;-76
2023/09/13 04:36:42;;;;;;;121.07;51.80;;;;;;;17.07;100.00;101339.53;5062440;28;20031;-76
2023/09/13 04:39:08;;;;;;;131.55;54.20;;;;;;;17.05;100.00;101336.13;5063849;28;20028;-76
2023/09/13 04:41:33;;;;;;;122.50;52.15;;;;;;;17.08;100.00;101352.63;5061718;28;20190;-76
2023/09/13 04:43:58;;;;;;;122.78;51.58;;;;;;;17.09;100.00;101343.81;5064356;28;20032;-76
2023/09/13 04:46:24;;;;;;;122.80;52.17;;;;;;;17.08;100.00;101347.38;5061654;28;20029;-76
2023/09/13 04:48:49;;;;;;;118.40;52.65;;;;;;;17.07;100.00;101348.31;5063537;28;20047;-76
2023/09/13 04:51:15;;;;;;;113.07;49.92;;;;;;;17.03;100.00;101338.78;5064494;28;20400;-76
2023/09/13 04:53:40;;;;;;;112.35;47.97;;;;;;;17.09;100.00;101349.06;5056709;28;20523;-76
2023/09/13 04:56:05;;;;;;;111.82;48.03;;;;;;;17.08;100.00;101350.00;5064275;28;20036;-76
2023/09/13 04:58:31;;;;;;;114.50;49.22;;;;;;;17.08;100.00;101350.00;5064330;28;20024;-76
2023/09/13 05:00:56;;;;;;;114.25;48.33;;;;;;;17.06;100.00;101338.66;5061975;28;20025;-76
2023/09/13 05:03:21;;;;;;;107.50;47.10;;;;;;;17.12;100.00;101350.72;5060334;28;20063;-76
2023/09/13 05:05:47;;;;;;;106.72;47.55;;;;;;;17.12;100.00;101349.88;5063092;28;20025;-76
2023/09/13 05:08:13;;;;;;;111.18;47.90;;;;;;;17.12;100.00;101355.16;5063418;28;20048;-76
2023/09/13 05:10:39;;;;;;;110.22;47.22;;;;;;;17.09;100.00;101354.34;5065420;28;20085;-76
2023/09/13 05:13:05;;;;;;;99.80;47.55;;;;;;;17.09;100.00;101364.88;5062539;28;20116;-76
2023/09/13 05:15:30;;;;;;;100.50;46.90;;;;;;;17.12;100.00;101363.03;5063160;28;20111;-76
2023/09/13 05:17:55;;;;;;;107.45;46.92;;;;;;;17.07;100.00;101353.56;5061436;28;20147;-76
2023/09/13 05:20:21;;;;;;;103.85;45.13;;;;;;;17.15;100.00;101362.91;5063809;28;20389;-76
2023/09/13 05:22:46;;;;;;;109.65;48.58;;;;;;;17.14;100.00;101356.81;5062033;28;20033;-76
2023/09/13 05:25:11;;;;;;;99.82;45.40;;;;;;;17.08;100.00;101364.97;5061931;28;20017;-76
2023/09/13 05:27:37;;;;;;;101.85;47.20;;;;;;;16.95;100.00;101353.22;5064179;28;20060;-76
2023/09/13 05:30:02;;;;;;;100.03;46.80;;;;;;;16.94;100.00;101355.00;5060650;28;20537;-76
2023/09/13 05:32:28;;;;;;;95.50;46.53;;;;;;;16.89;100.00;101358.75;5066551;28;20043;-76
2023/09/13 05:34:53;;;;;;;107.53;47.55;;;;;;;16.87;100.00;101358.78;5059466;28;21208;-76
2023/09/13 05:37:18;;;;;;;103.70;47.10;;;;;;;16.87;100.00;101364.06;5066693;28;20071;-76
2023/09/13 05:39:44;;;;;;;110.15;49.33;;;;;;;16.91;100.00;101367.44;5060116;28;20033;-76
2023/09/13 05:42:09;;;;;;;111.50;49.63;;;;;;;16.97;100.00;101369.81;5064508;28;20468;-76
2023/09/13 05:44:34;;;;;;;107.55;49.10;;;;;;;17.04;100.00;101381.81;5061614;28;20430;-76
2023/09/13 05:47:00;;;;;;;113.22;50.10;;;;;;;17.11;100.00;101390.31;5063639;28;20111;-76
2023/09/13 05:49:25;;;;;;;106.47;48.50;;;;;;;17.18;100.00;101379.44;5062505;28;20049;-76
2023/09/13 05:51:50;;;;;;;102.70;48.58;;;;;;;17.16;100.00;101378.66;5061241;28;20513;-76
2023/09/13 05:54:16;;;;;;;99.80;47.88;;;;;;;17.17;100.00;101380.38;5063502;28;20028;-76
2023/09/13 05:56:41;;;;;;;97.40;46.78;;;;;;;17.26;100.00;101387.88;5060584;28;20043;-76
2023/09/13 05:59:08;;;;;;;103.05;47.15;;;;;;;17.30;100.00;101388.63;5065536;28;20024;-76
2023/09/13 06:01:33;;;;;;;99.95;47.35;;;;;;;17.30;100.00;101394.75;5057990;28;20388;-76
2023/09/13 06:03:58;;;;;;;98.03;45.75;;;;;;;17.35;100.00;101394.53;5064076;28;20037;-76
2023/09/13 06:06:24;;;;;;;89.88;44.00;;;;;;;17.34;100.00;101394.63;5063392;28;20036;-76
2023/09/13 06:08:49;;;;;;;88.93;43.40;;;;;;;17.31;100.00;101401.72;5062483;28;20032;-76
2023/09/13 06:11:16;;;;;;;86.70;43.70;;;;;;;17.34;100.00;101399.88;5061102;28;20488;-76
2023/09/13 06:13:41;;;;;;;89.28;43.58;;;;;;;17.27;100.00;101399.28;5066906;28;20025;-76
2023/09/13 06:16:07;;;;;;;87.82;42.25;;;;;;;17.26;100.00;101411.59;5064648;28;20029;-76
2023/09/13 06:18:32;;;;;;;77.20;40.25;;;;;;;17.19;100.00;101410.13;5066263;28;20472;-76
2023/09/13 06:20:57;;;;;;;80.38;42.03;;;;;;;17.22;100.00;101412.66;5065011;28;20127;-76
2023/09/13 06:23:39;;;;;;;84.10;41.83;;;;;;;17.25;100.00;101423.06;5066824;28;20039;-76
2023/09/13 06:26:05;;;;;;;78.07;40.80;;;;;;;17.23;100.00;101421.41;5063733;28;20498;-76
2023/09/13 06:28:32;;;;;;;79.70;39.38;;;;;;;17.19;100.00;101425.94;5066889;28;20103;-76
2023/09/13 06:30:58;;;;;;;80.03;40.35;;;;;;;17.09;100.00;101417.56;5065377;28;20056;-76
2023/09/13 06:33:24;;;;;;;80.40;40.47;;;;;;;17.31;100.00;101429.84;5065458;28;20036;-76
2023/09/13 06:35:50;;;;;;;84.75;42.10;;;;;;;17.43;100.00;101431.97;5066652;28;20062;-76
2023/09/13 06:38:16;;;;;;;79.20;38.60;;;;;;;17.50;100.00;101438.69;5064339;28;20033;-76
2023/09/13 06:40:43;;;;;;;72.70;37.63;;;;;;;17.55;100.00;101441.97;5050831;28;20029;-76
2023/09/13 06:43:10;;;;;;;76.88;39.50;;;;;;;17.59;100.00;101436.56;5066540;28;20068;-76
2023/09/13 06:45:35;;;;;;;71.57;38.45;;;;;;;17.62;100.00;101441.72;5064147;28;20045;-76
2023/09/13 06:48:01;;;;;;;75.15;38.33;;;;;;;17.64;100.00;101439.88;5068064;28;20132;-76
2023/09/13 06:50:26;;;;;;;67.47;35.92;;;;;;;17.64;100.00;101447.78;5063286;28;20037;-76
2023/09/13 06:52:52;;;;;;;68.70;37.03;;;;;;;17.63;100.00;101443.44;5069287;28;20025;-76
2023/09/13 06:55:17;;;;;;;71.50;37.22;;;;;;;17.60;100.00;101444.44;5063234;28;20048;-76
2023/09/13 06:57:43;;;;;;;67.45;36.47;;;;;;;17.69;100.00;101453.69;5065081;28;20029;-76
2023/09/13 07:00:08;;;;;;;72.78;37.13;;;;;;;17.71;100.00;101451.88;5069955;28;20033;-76
2023/09/13 07:02:34;;;;;;;75.55;37.40;;;;;;;17.76;100.00;101456.06;5060077;28;20032;-76
2023/09/13 07:04:59;;;;;;;76.35;39.00;;;;;;;17.72;100.00;101458.84;5065465;28;20056;-76
2023/09/13 07:07:25;;;;;;;73.00;38.78;;;;;;;17.74;100.00;101463.13;5065618;28;20033;-76
2023/09/13 07:09:51;;;;;;;75.78;39.53;;;;;;;17.78;100.00;101474.44;5063240;28;20377;-76
2023/09/13 07:12:16;;;;;;;82.03;41.38;;;;;;;17.83;100.00;101469.84;5068361;28;20031;-76
2023/09/13 07:14:41;;;;;;;74.07;39.95;;;;;;;17.87;100.00;101474.03;5062070;28;20457;-76
2023/09/13 07:17:07;;;;;;;75.07;40.30;;;;;;;17.97;100.00;101474.50;5068986;28;20527;-76
2023/09/13 07:19:32;;;;;;;77.82;41.05;;;;;;;18.00;100.00;101475.22;5062772;28;20036;-76
2023/09/13 07:21:57;;;;;;;71.38;39.42;;;;;;;18.02;100.00;101468.09;5067676;28;20024;-76
2023/09/13 07:24:23;;;;;;;76.78;40.50;;;;;;;18.07;100.00;101462.59;5062485;28;20053;-76
2023/09/13 07:26:48;;;;;;;81.90;41.15;;;;;;;18.21;100.00;101462.84;5066226;28;20429;-76
2023/09/13 07:29:13;;;;;;;74.95;40.85;;;;;;;18.36;100.00;101470.97;5064273;28;20082;-76
2023/09/13 07:31:39;;;;;;;74.82;42.40;;;;;;;18.53;100.00;101473.69;5064306;28;20533;-76
2023/09/13 07:34:04;;;;;;;70.28;40.20;;;;;;;18.74;100.00;101477.16;5065908;28;20495;-76
2023/09/13 07:36:30;;;;;;;70.25;39.42;;;;;;;18.83;100.00;101478.47;5062570;28;20527;-76
2023/09/13 07:38:56;;;;;;;70.97;39.55;;;;;;;18.83;100.00;101486.41;5065655;28;20066;-76
2023/09/13 07:41:21;;;;;;;72.15;38.85;;;;;;;18.73;100.00;101491.28;5063045;28;20031;-76
2023/09/13 07:43:46;;;;;;;61.90;37.35;;;;;;;18.54;100.00;101485.09;5065268;28;20403;-76
2023/09/13 07:46:12;;;;;;;65.05;37.55;;;;;;;18.34;100.00;101483.38;5065702;28;20025;-76
2023/09/13 07:48:38;;;;;;;70.53;39.75;;;;;;;18.18;100.00;101486.75;5060802;28;20041;-76
2023/09/13 07:51:04;;;;;;;70.22;38.40;;;;;;;18.02;100.00;101489.19;5065312;28;20487;-76
2023/09/13 07:53:30;;;;;;;76.53;40.63;;;;;;;17.95;100.00;101489.53;5063729;28;20021;-77
2023/09/13 07:55:59;;;;;;;74.28;40.55;;;;;;;17.84;100.00;101497.91;5064330;28;20021;-77
2023/09/13 07:58:25;;;;;;;72.75;40.00;;;;;;;17.78;100.00;101514.00;5066249;28;20028;-77
2023/09/13 08:00:50;;;;;;;37.67;22.02;;;;;;;17.57;100.00;101528.94;5064864;28;20044;-77
2023/09/13 08:03:16;;;;;;;20.65;12.32;;;;;;;17.27;100.00;101531.06;5062063;28;20044;-77
2023/09/13 08:05:45;;;;;;;9.10;6.63;;;;;;;17.01;100.00;101540.84;5065147;28;20108;-77
2023/09/13 08:08:14;;;;;;;9.00;5.70;;;;;;;16.96;100.00;101547.19;5051877;28;20070;-77
2023/09/13 08:10:40;;;;;;;6.70;4.57;;;;;;;16.88;100.00;101544.88;5062705;28;20016;-76
2023/09/13 08:13:06;;;;;;;5.63;3.88;;;;;;;16.83;100.00;101544.19;5063622;28;20539;-76
2023/09/13 08:15:31;;;;;;;7.65;4.13;;;;;;;16.80;100.00;101552.19;5064664;28;20103;-77
2023/09/13 08:17:57;;;;;;;6.93;4.20;;;;;;;16.85;100.00;101555.53;5061286;28;20020;-77
2023/09/13 08:20:22;;;;;;;6.47;3.80;;;;;;;16.98;100.00;101566.44;5064756;28;20055;-77
2023/09/13 08:22:47;;;;;;;3.20;2.90;;;;;;;17.18;100.00;101573.56;5063752;28;20025;-77
2023/09/13 08:25:13;;;;;;;2.80;2.03;;;;;;;17.29;100.00;101581.91;5062556;28;20029;-76
2023/09/13 08:27:39;;;;;;;3.97;2.40;;;;;;;17.29;100.00;101582.75;5065858;28;20029;-76
2023/09/13 08:30:06;;;;;;;2.25;2.05;;;;;;;17.40;100.00;101594.66;5061569;28;20017;-77
2023/09/13 08:32:31;;;;;;;4.28;2.20;;;;;;;17.44;100.00;101585.72;5066964;28;20033;-76
2023/09/13 08:34:57;;;;;;;2.35;1.73;;;;;;;17.46;100.00;101597.03;5060600;28;20495;-77
2023/09/13 08:37:22;;;;;;;2.42;1.80;;;;;;;17.63;100.00;101591.94;5067557;28;20090;-77
2023/09/13 08:39:47;;;;;;;3.28;1.95;;;;;;;17.82;100.00;101593.84;5060055;28;20047;-76
2023/09/13 08:42:14;;;;;;;3.03;2.22;;;;;;;17.91;100.00;101617.19;5067250;28;20024;-76
2023/09/13 08:44:41;;;;;;;2.35;1.70;;;;;;;17.84;100.00;101616.59;5060964;28;20059;-77
2023/09/13 08:47:10;;;;;;;1.80;1.33;;;;;;;17.76;100.00;101626.59;5065879;28;20027;-77
2023/09/13 08:49:36;;;;;;;1.55;1.30;;;;;;;17.82;100.00;101639.56;5062637;28;20087;-76
2023/09/13 08:52:03;;;;;;;1.50;1.10;;;;;;;17.92;100.00;101632.97;5063278;28;20028;-76
2023/09/13 08:54:29;;;;;;;1.25;1.15;;;;;;;17.92;100.00;101650.56;5063865;28;20396;-76
2023/09/13 08:56:56;;;;;;;1.50;1.30;;;;;;;17.76;100.00;101648.56;5062547;28;20162;-76
2023/09/13 08:59:21;;;;;;;2.05;1.00;;;;;;;17.85;100.00;101654.38;5066707;28;20037;-76
2023/09/13 09:01:49;;;;;;;3.65;1.40;;;;;;;17.97;100.00;101670.56;5059367;28;20036;-76
2023/09/13 09:04:19;;;;;;;2.10;1.00;;;;;;;18.17;100.00;101677.66;5062002;28;20021;-76
2023/09/13 09:06:44;;;;;;;1.30;1.10;;;;;;;18.24;100.00;101670.31;5065355;28;20032;-76
2023/09/13 09:09:12;;;;;;;1.85;1.23;;;;;;;18.23;100.00;101668.63;5057676;28;20048;-76
2023/09/13 09:11:41;;;;;;;1.58;1.30;;;;;;;18.30;100.00;101682.41;5064693;28;20025;-76
2023/09/13 09:14:08;;;;;;;1.65;1.33;;;;;;;18.36;100.00;101683.00;5061391;28;20029;-76
2023/09/13 09:16:35;;;;;;;2.28;1.25;;;;;;;18.37;100.00;101684.72;5063317;28;20078;-76
2023/09/13 09:19:01;;;;;;;2.17;1.20;;;;;;;18.35;100.00;101691.88;5063080;28;20020;-76
2023/09/13 09:21:29;;;;;;;1.50;1.25;;;;;;;18.41;100.00;101701.28;5061547;28;20070;-77
2023/09/13 09:23:56;;;;;;;1.67;1.30;;;;;;;18.35;100.00;101705.06;5063885;28;20410;-76
2023/09/13 09:26:22;;;;;;;1.27;1.00;;;;;;;18.25;100.00;101711.66;5061546;28;20053;-76
2023/09/13 09:28:47;;;;;;;2.92;1.50;;;;;;;18.18;100.00;101708.41;5062997;28;20456;-76
2023/09/13 09:31:13;;;;;;;2.75;1.13;;;;;;;18.19;100.00;101718.03;5061505;28;20033;-76
2023/09/13 09:33:39;;;;;;;1.80;1.17;;;;;;;18.28;100.00;101726.47;5063383;28;20025;-77
2023/09/13 09:36:05;;;;;;;3.33;1.20;;;;;;;18.28;100.00;101724.72;5062573;28;20032;-76
2023/09/13 09:38:31;;;;;;;5.32;1.33;;;;;;;18.23;100.00;101722.25;5062195;28;20029;-76
2023/09/13 09:41:03;;;;;;;1.92;1.20;;;;;;;18.30;100.00;101730.78;5062973;28;20024;-76
2023/09/13 09:43:29;;;;;;;2.33;1.30;;;;;;;18.29;100.00;101725.59;5061523;28;20025;-76
2023/09/13 09:45:56;;;;;;;2.13;1.10;;;;;;;18.29;100.00;101733.50;5063676;28;20078;-76
2023/09/13 09:48:21;;;;;;;1.88;1.23;;;;;;;18.36;100.00;101733.16;5066018;28;20051;-75
2023/09/13 09:50:54;;;;;;;1.90;1.33;;;;;;;18.47;100.00;101733.59;5067111;28;20032;-76
2023/09/13 09:53:24;;;;;;;1.77;1.38;;;;;;;18.58;100.00;101738.41;5067882;28;20108;-76
2023/09/13 09:55:50;;;;;;;2.55;1.30;;;;;;;18.70;100.00;101737.88;5065765;28;20111;-76
2023/09/13 09:58:17;;;;;;;2.45;1.15;;;;;;;18.54;100.00;101735.94;5068812;28;20059;-76
2023/09/13 10:00:45;;;;;;;3.47;1.40;;;;;;;18.41;100.00;101741.78;5066806;28;20041;-76
2023/09/13 10:03:17;;;;;;;2.42;1.48;;;;;;;18.55;100.00;101727.97;5065696;28;20509;-76
2023/09/13 10:05:54;;;;;;;1.55;1.20;;;;;;;18.77;100.00;101730.59;5064793;28;20094;-76
2023/09/13 10:08:35;;;;;;;3.20;1.30;;;;;;;18.80;100.00;101738.38;5057086;28;20387;-76
2023/09/13 10:11:01;;;;;;;2.40;1.73;;;;;;;18.84;100.00;101736.47;5064024;28;20028;-76
2023/09/13 10:13:30;;;;;;;2.20;1.30;;;;;;;18.80;100.00;101740.13;5067366;28;20040;-76
2023/09/13 10:15:55;;;;;;;2.15;1.65;;;;;;;19.12;100.00;101747.50;5064156;28;20032;-76
2023/09/13 10:18:22;;;;;;;1.70;1.40;;;;;;;19.32;100.00;101743.94;5066887;28;20088;-76
2023/09/13 10:20:47;;;;;;;2.03;1.45;;;;;;;19.32;100.00;101749.25;5066006;28;20135;-76
2023/09/13 10:23:17;;;;;;;2.00;1.63;;;;;;;19.20;100.00;101765.69;5064679;28;20119;-75
2023/09/13 10:25:46;;;;;;;1.50;1.40;;;;;;;19.01;100.00;101754.22;5066562;28;20489;-75
2023/09/13 10:28:13;;;;;;;3.05;1.60;;;;;;;19.15;100.00;101763.22;5064652;28;20047;-75
2023/09/13 10:30:41;;;;;;;3.60;1.67;;;;;;;19.11;100.00;101771.38;5065870;28;20025;-75
2023/09/13 10:33:09;;;;;;;1.65;1.52;;;;;;;18.93;100.00;101771.25;5065469;28;20064;-75
2023/09/13 10:35:41;;;;;;;3.88;1.67;;;;;;;18.87;100.00;101768.03;5066575;28;20020;-75
2023/09/13 10:38:13;;;;;;;1.60;1.50;;;;;;;18.93;100.00;101770.38;5065681;28;20040;-76
2023/09/13 10:40:43;;;;;;;3.45;1.40;;;;;;;19.00;100.00;101773.59;5066345;28;20028;-75
2023/09/13 10:43:09;;;;;;;3.67;1.55;;;;;;;19.44;100.00;101784.84;5066589;28;20036;-75
2023/09/13 10:45:36;;;;;;;2.95;1.52;;;;;;;20.07;100.00;101784.56;5063990;28;20357;-75
2023/09/13 10:48:04;;;;;;;3.85;1.50;;;;;;;20.07;100.00;101790.72;5068106;28;20079;-76
2023/09/13 10:50:31;;;;;;;2.00;1.40;;;;;;;19.92;100.00;101799.41;5063649;28;20037;-76
2023/09/13 10:52:59;;;;;;;1.50;1.30;;;;;;;19.87;100.00;101799.59;5069204;28;20033;-75
2023/09/13 10:55:26;;;;;;;2.03;1.30;;;;;;;19.81;100.00;101801.69;5056710;28;20035;-76
2023/09/13 10:57:52;;;;;;;1.55;1.35;;;;;;;19.88;100.00;101805.75;5066168;28;20404;-75
2023/09/13 11:00:19;;;;;;;2.45;1.38;;;;;;;20.19;100.00;101793.72;5065897;28;20024;-75